createdAt,value
2022-10-25T00:00:51.249Z,91.43
2022-10-25T00:01:51.347Z,91.23
2022-10-25T00:02:51.232Z,91.19
2022-10-25T00:03:51.237Z,91.53
2022-10-25T00:04:51.214Z,91.23
2022-10-25T00:05:51.210Z,91.19
2022-10-25T00:06:51.196Z,91.29
2022-10-25T00:07:51.185Z,91.19
2022-10-25T00:08:51.190Z,91.49
2022-10-25T00:09:51.171Z,91.29
2022-10-25T00:10:51.164Z,91.60
2022-10-25T00:11:51.161Z,91.29
2022-10-25T00:12:51.166Z,91.49
2022-10-25T00:13:51.154Z,91.49
2022-10-25T00:14:51.130Z,91.29
2022-10-25T00:15:51.133Z,91.49
2022-10-25T00:16:51.115Z,91.39
2022-10-25T00:17:51.121Z,91.19
2022-10-25T00:18:51.106Z,91.84
2022-10-25T00:19:51.101Z,91.39
2022-10-25T00:20:51.147Z,91.53
2022-10-25T00:21:51.091Z,91.49
2022-10-25T00:22:51.084Z,91.29
2022-10-25T00:23:51.082Z,91.84
2022-10-25T00:24:51.062Z,92.25
2022-10-25T00:25:51.052Z,92.14
2022-10-25T00:26:51.041Z,92.14
2022-10-25T00:27:51.042Z,92.35
2022-10-25T00:29:51.107Z,92.35
2022-10-25T00:30:51.098Z,93.06
2022-10-25T00:31:51.093Z,93.31
2022-10-25T00:32:51.080Z,93.01
2022-10-25T00:33:51.074Z,93.87
2022-10-25T00:34:51.066Z,93.92
2022-10-25T00:35:51.071Z,93.51
2022-10-25T00:36:51.056Z,93.16
2022-10-25T00:37:51.050Z,94.02
2022-10-25T00:38:51.038Z,93.62
2022-10-25T00:39:51.022Z,93.10
2022-10-25T00:40:52.099Z,93.41
2022-10-25T00:41:53.105Z,93.82
2022-10-25T00:42:52.101Z,93.62
2022-10-25T00:43:52.085Z,94.02
2022-10-25T00:44:52.075Z,94.12
2022-10-25T00:45:52.133Z,93.82
2022-10-25T00:46:52.077Z,93.21
2022-10-25T00:47:52.055Z,93.41
2022-10-25T00:48:53.984Z,93.51
2022-10-25T00:49:52.044Z,93.41
2022-10-25T00:50:52.039Z,93.31
2022-10-25T00:51:52.020Z,93.55
2022-10-25T00:52:52.008Z,93.45
2022-10-25T00:53:51.995Z,93.66
2022-10-25T00:54:53.000Z,93.45
2022-10-25T00:55:51.994Z,93.21
2022-10-25T00:56:51.983Z,93.66
2022-10-25T00:57:51.995Z,93.25
2022-10-25T00:58:51.966Z,93.55
2022-10-25T00:59:51.976Z,93.35
2022-10-25T01:03:16.975Z,93.35
2022-10-25T01:03:36.607Z,93.55
2022-10-25T01:04:36.600Z,93.25
2022-10-25T01:05:36.590Z,93.35
2022-10-25T01:06:38.548Z,93.45
2022-10-25T01:07:37.666Z,93.45
2022-10-25T01:08:37.665Z,93.66
2022-10-25T01:09:37.657Z,93.55
2022-10-25T01:10:37.642Z,93.86
2022-10-25T01:11:37.635Z,93.55
2022-10-25T01:12:37.627Z,93.25
2022-10-25T01:13:37.623Z,94.07
2022-10-25T01:14:37.609Z,93.15
2022-10-25T01:15:37.616Z,92.94
2022-10-25T01:16:37.595Z,92.74
2022-10-25T01:17:37.598Z,92.64
2022-10-25T01:18:37.588Z,92.94
2022-10-25T01:19:37.573Z,92.84
2022-10-25T01:20:37.574Z,92.89
2022-10-25T01:21:37.550Z,93.09
2022-10-25T01:22:37.546Z,94.17
2022-10-25T01:23:37.541Z,94.01
2022-10-25T01:24:37.531Z,93.40
2022-10-25T01:25:37.538Z,93.40
2022-10-25T01:26:37.538Z,93.60
2022-10-25T01:27:37.516Z,93.80
2022-10-25T01:28:37.507Z,93.90
2022-10-25T01:29:37.495Z,93.90
2022-10-25T01:30:37.487Z,94.11
2022-10-25T01:31:37.492Z,93.50
2022-10-25T01:32:37.465Z,93.60
2022-10-25T01:33:37.464Z,93.50
2022-10-25T01:34:37.457Z,93.50
2022-10-25T01:35:37.442Z,93.50
2022-10-25T01:36:37.460Z,93.80
2022-10-25T01:37:37.458Z,94.01
2022-10-25T01:38:37.420Z,93.29
2022-10-25T01:39:37.420Z,93.50
2022-10-25T01:40:37.405Z,93.40
2022-10-25T01:41:37.404Z,93.50
2022-10-25T01:42:37.396Z,93.29
2022-10-25T01:43:37.375Z,93.50
2022-10-25T01:44:37.428Z,93.40
2022-10-25T01:45:37.361Z,93.29
2022-10-25T01:46:38.068Z,93.60
2022-10-25T01:47:37.351Z,93.50
2022-10-25T01:48:37.341Z,93.70
2022-10-25T01:49:37.343Z,93.50
2022-10-25T01:50:37.328Z,93.50
2022-10-25T01:51:37.317Z,93.85
2022-10-25T01:52:37.302Z,93.74
2022-10-25T01:53:37.299Z,93.85
2022-10-25T01:54:37.310Z,94.15
2022-10-25T01:55:37.286Z,93.74
2022-10-25T01:56:37.288Z,94.46
2022-10-25T01:57:37.271Z,94.46
2022-10-25T01:58:37.259Z,94.66
2022-10-25T01:59:37.256Z,94.66
2022-10-25T02:00:37.270Z,94.71
2022-10-25T02:01:37.453Z,95.42
2022-10-25T02:02:37.228Z,95.83
2022-10-25T02:03:37.215Z,95.52
2022-10-25T02:04:37.210Z,95.62
2022-10-25T02:05:37.211Z,95.62
2022-10-25T02:06:37.196Z,94.81
2022-10-25T02:07:37.222Z,95.42
2022-10-25T02:08:37.186Z,95.21
2022-10-25T02:09:37.167Z,95.26
2022-10-25T02:10:37.160Z,95.21
2022-10-25T02:11:37.174Z,96.08
2022-10-25T02:12:37.150Z,95.97
2022-10-25T02:13:37.141Z,96.28
2022-10-25T02:14:37.150Z,96.18
2022-10-25T02:15:37.117Z,95.87
2022-10-25T02:16:37.124Z,95.97
2022-10-25T02:17:37.112Z,96.28
2022-10-25T02:18:37.109Z,95.87
2022-10-25T02:19:37.095Z,95.83
2022-10-25T02:20:37.093Z,96.03
2022-10-25T02:21:37.075Z,95.32
2022-10-25T02:22:37.070Z,95.48
2022-10-25T02:23:37.055Z,95.48
2022-10-25T02:24:37.051Z,95.78
2022-10-25T02:25:37.049Z,95.17
2022-10-25T02:26:37.095Z,94.66
2022-10-25T02:27:37.022Z,94.26
2022-10-25T02:28:37.020Z,93.95
2022-10-25T02:29:37.011Z,93.90
2022-10-25T02:30:37.002Z,93.80
2022-10-25T02:31:36.999Z,93.19
2022-10-25T02:32:37.499Z,94.21
2022-10-25T02:33:36.976Z,94.01
2022-10-25T02:34:36.982Z,93.50
2022-10-25T02:35:36.961Z,93.40
2022-10-25T02:36:36.959Z,92.99
2022-10-25T02:37:36.942Z,94.15
2022-10-25T02:38:36.934Z,93.54
2022-10-25T02:39:36.928Z,93.54
2022-10-25T02:40:36.918Z,93.54
2022-10-25T02:41:36.928Z,93.95
2022-10-25T02:42:36.905Z,93.85
2022-10-25T02:43:36.891Z,93.54
2022-10-25T02:44:37.504Z,94.05
2022-10-25T02:45:36.878Z,94.35
2022-10-25T02:46:36.877Z,94.35
2022-10-25T02:47:36.867Z,94.35
2022-10-25T02:48:36.853Z,94.05
2022-10-25T02:49:36.855Z,94.26
2022-10-25T02:50:36.859Z,94.35
2022-10-25T02:51:36.835Z,93.95
2022-10-25T02:52:36.830Z,94.35
2022-10-25T02:53:36.816Z,93.74
2022-10-25T02:54:36.804Z,93.74
2022-10-25T02:55:36.798Z,94.15
2022-10-25T02:56:36.789Z,94.05
2022-10-25T02:57:36.788Z,94.15
2022-10-25T02:58:36.773Z,94.05
2022-10-25T02:59:36.763Z,94.35
2022-10-25T03:00:36.789Z,94.60
2022-10-25T03:01:36.766Z,94.50
2022-10-25T03:02:36.736Z,94.71
2022-10-25T03:03:36.729Z,94.81
2022-10-25T03:04:37.509Z,94.50
2022-10-25T03:05:36.724Z,94.30
2022-10-25T03:06:36.715Z,94.60
2022-10-25T03:07:36.696Z,94.87
2022-10-25T03:08:36.687Z,94.26
2022-10-25T03:09:36.688Z,94.60
2022-10-25T03:10:36.682Z,94.40
2022-10-25T03:11:36.666Z,94.15
2022-10-25T03:12:36.666Z,93.99
2022-10-25T03:13:36.656Z,93.85
2022-10-25T03:14:36.643Z,93.54
2022-10-25T03:15:36.637Z,93.74
2022-10-25T03:16:37.525Z,93.38
2022-10-25T03:17:36.633Z,94.09
2022-10-25T03:18:36.620Z,93.99
2022-10-25T03:19:36.604Z,94.20
2022-10-25T03:20:36.597Z,94.71
2022-10-25T03:21:38.765Z,94.85
2022-10-25T03:22:36.597Z,94.95
2022-10-25T03:23:36.588Z,95.67
2022-10-25T03:24:36.566Z,95.36
2022-10-25T03:25:36.573Z,95.87
2022-10-25T03:26:36.545Z,95.97
2022-10-25T03:27:36.548Z,96.08
2022-10-25T03:28:36.536Z,95.87
2022-10-25T03:29:36.520Z,95.36
2022-10-25T03:30:36.536Z,95.01
2022-10-25T03:31:36.506Z,95.62
2022-10-25T03:32:36.515Z,95.47
2022-10-25T03:33:36.496Z,95.42
2022-10-25T03:34:36.494Z,95.52
2022-10-25T03:35:36.474Z,95.52
2022-10-25T03:36:36.465Z,95.67
2022-10-25T03:37:39.017Z,95.42
2022-10-25T03:38:36.452Z,95.62
2022-10-25T03:39:36.445Z,94.81
2022-10-25T03:40:36.433Z,94.26
2022-10-25T03:41:36.430Z,94.71
2022-10-25T03:42:36.445Z,94.40
2022-10-25T03:43:36.409Z,93.99
2022-10-25T03:44:36.414Z,94.30
2022-10-25T03:45:36.394Z,94.15
2022-10-25T03:46:36.401Z,93.54
2022-10-25T03:47:36.385Z,93.95
2022-10-25T03:48:36.369Z,93.74
2022-10-25T03:49:36.369Z,93.64
2022-10-25T03:50:36.367Z,93.85
2022-10-25T03:51:36.345Z,93.40
2022-10-25T03:52:36.339Z,93.64
2022-10-25T03:53:36.337Z,92.79
2022-10-25T03:54:37.094Z,92.79
2022-10-25T03:55:36.317Z,92.63
2022-10-25T03:56:36.302Z,92.68
2022-10-25T03:57:36.297Z,92.58
2022-10-25T03:58:36.296Z,92.68
2022-10-25T03:59:36.280Z,92.58
2022-10-25T04:00:36.361Z,92.27
2022-10-25T04:01:36.386Z,92.18
2022-10-25T04:02:36.254Z,92.18
2022-10-25T04:03:36.250Z,92.38
2022-10-25T04:04:36.239Z,92.38
2022-10-25T04:05:36.241Z,91.97
2022-10-25T04:06:36.225Z,92.38
2022-10-25T04:07:36.215Z,92.79
2022-10-25T04:08:36.215Z,92.83
2022-10-25T04:09:36.200Z,92.72
2022-10-25T04:10:37.025Z,92.83
2022-10-25T04:11:36.187Z,93.03
2022-10-25T04:12:36.177Z,92.93
2022-10-25T04:13:36.168Z,92.83
2022-10-25T04:14:36.165Z,92.72
2022-10-25T04:15:36.155Z,92.83
2022-10-25T04:16:36.169Z,93.24
2022-10-25T04:17:36.139Z,94.26
2022-10-25T04:18:36.131Z,93.44
2022-10-25T04:19:37.105Z,93.95
2022-10-25T04:20:36.101Z,93.85
2022-10-25T04:21:37.129Z,94.05
2022-10-25T04:23:36.095Z,93.79
2022-10-25T04:24:36.078Z,93.54
2022-10-25T04:25:36.075Z,93.69
2022-10-25T04:26:36.072Z,93.59
2022-10-25T04:27:36.062Z,93.99
2022-10-25T04:28:36.044Z,94.20
2022-10-25T04:29:36.038Z,94.20
2022-10-25T04:30:38.086Z,93.79
2022-10-25T04:31:36.032Z,94.09
2022-10-25T04:32:36.020Z,94.60
2022-10-25T04:33:36.003Z,94.40
2022-10-25T04:34:36.004Z,93.99
2022-10-25T04:35:36.000Z,93.89
2022-10-25T04:36:35.976Z,94.04
2022-10-25T04:37:35.981Z,94.09
2022-10-25T04:38:36.532Z,94.55
2022-10-25T04:39:35.959Z,94.65
2022-10-25T04:40:35.970Z,95.06
2022-10-25T04:41:36.611Z,94.85
2022-10-25T04:42:35.927Z,95.36
2022-10-25T04:43:35.924Z,94.75
2022-10-25T04:44:35.912Z,94.71
2022-10-25T04:45:35.943Z,94.85
2022-10-25T04:46:35.897Z,94.75
2022-10-25T04:47:35.884Z,94.50
2022-10-25T04:48:36.878Z,94.45
2022-10-25T04:49:35.872Z,94.75
2022-10-25T04:50:35.860Z,94.55
2022-10-25T04:51:35.857Z,94.85
2022-10-25T04:52:35.857Z,94.95
2022-10-25T04:53:36.540Z,94.85
2022-10-25T04:54:35.830Z,94.65
2022-10-25T04:55:35.818Z,94.85
2022-10-25T04:56:35.810Z,95.06
2022-10-25T04:57:35.810Z,95.06
2022-10-25T04:58:35.795Z,94.34
2022-10-25T04:59:35.801Z,94.65
2022-10-25T05:00:35.779Z,94.85
2022-10-25T05:01:35.858Z,94.45
2022-10-25T05:02:35.838Z,94.55
2022-10-25T05:03:35.756Z,95.01
2022-10-25T05:04:35.748Z,94.65
2022-10-25T05:05:35.748Z,94.55
2022-10-25T05:06:35.732Z,94.24
2022-10-25T05:07:35.737Z,94.45
2022-10-25T05:08:35.716Z,94.65
2022-10-25T05:09:35.710Z,94.85
2022-10-25T05:10:35.717Z,94.95
2022-10-25T05:12:35.690Z,94.55
2022-10-25T05:13:35.680Z,94.75
2022-10-25T05:14:35.672Z,94.45
2022-10-25T05:15:35.670Z,94.75
2022-10-25T05:16:35.666Z,94.85
2022-10-25T05:17:35.652Z,95.10
2022-10-25T05:18:35.638Z,94.85
2022-10-25T05:19:35.642Z,95.31
2022-10-25T05:20:35.637Z,95.57
2022-10-25T05:21:35.624Z,95.72
2022-10-25T05:22:35.599Z,95.57
2022-10-25T05:23:36.185Z,95.06
2022-10-25T05:24:35.594Z,94.65
2022-10-25T05:25:35.663Z,94.65
2022-10-25T05:26:35.573Z,94.85
2022-10-25T05:27:35.562Z,94.65
2022-10-25T05:28:35.552Z,94.75
2022-10-25T05:29:35.547Z,95.36
2022-10-25T05:30:35.542Z,95.87
2022-10-25T05:31:35.523Z,95.77
2022-10-25T05:32:35.525Z,95.81
2022-10-25T05:33:35.508Z,95.57
2022-10-25T05:34:35.509Z,95.36
2022-10-25T05:35:35.501Z,95.47
2022-10-25T05:36:35.491Z,95.57
2022-10-25T05:37:35.479Z,95.26
2022-10-25T05:38:37.670Z,95.41
2022-10-25T05:39:36.501Z,95.57
2022-10-25T05:40:35.453Z,95.16
2022-10-25T05:41:37.164Z,95.77
2022-10-25T05:42:35.443Z,95.42
2022-10-25T05:43:35.439Z,95.77
2022-10-25T05:44:35.646Z,95.57
2022-10-25T05:45:35.420Z,95.36
2022-10-25T05:46:35.428Z,95.77
2022-10-25T05:47:35.401Z,95.21
2022-10-25T05:48:35.432Z,95.32
2022-10-25T05:49:35.393Z,94.85
2022-10-25T05:50:35.418Z,94.85
2022-10-25T05:51:36.515Z,94.50
2022-10-25T05:52:36.359Z,94.20
2022-10-25T05:53:35.355Z,94.09
2022-10-25T05:54:35.406Z,94.09
2022-10-25T05:55:35.339Z,94.09
2022-10-25T05:56:35.342Z,94.20
2022-10-25T05:57:35.328Z,94.40
2022-10-25T05:58:35.310Z,94.40
2022-10-25T05:59:35.319Z,93.99
2022-10-25T06:00:35.367Z,94.20
2022-10-25T06:01:35.423Z,94.20
2022-10-25T06:02:35.286Z,94.40
2022-10-25T06:03:35.274Z,94.40
2022-10-25T06:04:35.276Z,94.40
2022-10-25T06:05:35.256Z,94.30
2022-10-25T06:06:35.277Z,94.20
2022-10-25T06:07:35.245Z,94.50
2022-10-25T06:08:35.246Z,94.20
2022-10-25T06:09:35.231Z,94.05
2022-10-25T06:10:35.275Z,93.33
2022-10-25T06:11:35.209Z,93.44
2022-10-25T06:12:35.199Z,93.85
2022-10-25T06:13:35.193Z,93.64
2022-10-25T06:14:35.190Z,93.64
2022-10-25T06:15:36.056Z,93.48
2022-10-25T06:16:35.172Z,93.64
2022-10-25T06:17:35.154Z,93.69
2022-10-25T06:18:35.148Z,93.89
2022-10-25T06:19:35.148Z,93.79
2022-10-25T06:20:35.206Z,94.09
2022-10-25T06:21:35.129Z,93.89
2022-10-25T06:22:35.120Z,93.99
2022-10-25T06:23:35.123Z,94.45
2022-10-25T06:24:35.115Z,94.30
2022-10-25T06:25:35.097Z,94.45
2022-10-25T06:26:35.092Z,94.24
2022-10-25T06:27:35.080Z,94.20
2022-10-25T06:28:35.067Z,94.20
2022-10-25T06:29:35.073Z,94.20
2022-10-25T06:30:35.068Z,93.93
2022-10-25T06:31:35.645Z,93.89
2022-10-25T06:32:35.041Z,93.89
2022-10-25T06:33:35.045Z,93.79
2022-10-25T06:34:35.020Z,93.79
2022-10-25T06:35:35.014Z,93.69
2022-10-25T06:36:35.008Z,93.89
2022-10-25T06:37:35.004Z,93.89
2022-10-25T06:38:35.005Z,94.09
2022-10-25T06:39:34.989Z,94.20
2022-10-25T06:40:34.977Z,93.89
2022-10-25T06:41:36.022Z,94.09
2022-10-25T06:42:34.965Z,94.20
2022-10-25T06:43:34.938Z,93.79
2022-10-25T06:44:35.945Z,93.48
2022-10-25T06:45:35.645Z,93.03
2022-10-25T06:46:40.573Z,93.24
2022-10-25T06:47:35.916Z,93.13
2022-10-25T06:48:34.905Z,92.83
2022-10-25T06:49:34.904Z,92.93
2022-10-25T06:50:34.911Z,93.03
2022-10-25T06:51:35.570Z,92.83
2022-10-25T06:52:34.877Z,92.52
2022-10-25T06:53:34.865Z,92.11
2022-10-25T06:54:34.856Z,92.11
2022-10-25T06:55:34.848Z,92.52
2022-10-25T06:56:34.854Z,92.63
2022-10-25T06:57:35.563Z,92.27
2022-10-25T06:58:34.827Z,91.77
2022-10-25T06:59:34.821Z,91.56
2022-10-25T07:00:34.819Z,91.46
2022-10-25T07:01:34.926Z,91.87
2022-10-25T07:02:34.790Z,91.22
2022-10-25T07:03:34.795Z,91.11
2022-10-25T07:04:34.796Z,90.56
2022-10-25T07:05:34.775Z,90.46
2022-10-25T07:06:34.773Z,89.20
2022-10-25T07:07:34.759Z,88.75
2022-10-25T07:08:34.748Z,88.04
2022-10-25T07:09:34.738Z,87.93
2022-10-25T07:10:34.770Z,87.08
2022-10-25T07:11:34.732Z,87.18
2022-10-25T07:12:34.728Z,86.43
2022-10-25T07:13:34.743Z,85.98
2022-10-25T07:14:34.701Z,84.93
2022-10-25T07:15:36.415Z,84.42
2022-10-25T07:16:34.690Z,84.83
2022-10-25T07:17:34.684Z,84.52
2022-10-25T07:18:34.665Z,84.63
2022-10-25T07:19:34.657Z,84.63
2022-10-25T07:20:34.652Z,84.32
2022-10-25T07:21:34.660Z,84.83
2022-10-25T07:22:34.642Z,84.83
2022-10-25T07:23:34.630Z,84.63
2022-10-25T07:24:34.627Z,84.63
2022-10-25T07:25:34.627Z,84.42
2022-10-25T07:26:34.614Z,84.87
2022-10-25T07:27:34.598Z,85.58
2022-10-25T07:28:34.588Z,85.17
2022-10-25T07:29:35.581Z,85.38
2022-10-25T07:30:34.597Z,85.62
2022-10-25T07:31:34.699Z,85.17
2022-10-25T07:32:37.581Z,85.21
2022-10-25T07:33:35.555Z,85.92
2022-10-25T07:34:34.544Z,85.62
2022-10-25T07:35:41.971Z,85.72
2022-10-25T07:36:36.530Z,86.02
2022-10-25T07:37:34.543Z,86.22
2022-10-25T07:38:34.524Z,85.92
2022-10-25T07:39:35.085Z,85.92
2022-10-25T07:40:34.501Z,85.82
2022-10-25T07:41:34.492Z,85.82
2022-10-25T07:42:34.485Z,85.92
2022-10-25T07:43:34.485Z,85.78
2022-10-25T07:44:34.539Z,85.82
2022-10-25T07:45:34.461Z,85.62
2022-10-25T07:46:34.455Z,86.02
2022-10-25T07:47:34.462Z,85.68
2022-10-25T07:48:34.445Z,85.58
2022-10-25T07:49:34.427Z,85.78
2022-10-25T07:50:34.417Z,85.53
2022-10-25T07:51:34.413Z,85.03
2022-10-25T07:52:34.411Z,85.03
2022-10-25T07:53:34.406Z,84.93
2022-10-25T07:54:34.434Z,84.93
2022-10-25T07:55:34.377Z,85.33
2022-10-25T07:56:34.421Z,85.53
2022-10-25T07:57:36.101Z,85.44
2022-10-25T07:58:34.884Z,85.44
2022-10-25T07:59:34.346Z,85.33
2022-10-25T08:00:34.362Z,85.74
2022-10-25T08:01:34.403Z,85.74
2022-10-25T08:02:34.320Z,85.53
2022-10-25T08:03:34.321Z,85.74
2022-10-25T08:04:34.323Z,85.64
2022-10-25T08:05:34.294Z,85.74
2022-10-25T08:06:34.298Z,85.74
2022-10-25T08:07:34.280Z,85.24
2022-10-25T08:08:34.264Z,85.84
2022-10-25T08:09:38.279Z,85.84
2022-10-25T08:10:35.270Z,85.24
2022-10-25T08:11:34.246Z,85.33
2022-10-25T08:12:34.237Z,85.19
2022-10-25T08:13:34.232Z,85.44
2022-10-25T08:14:36.453Z,85.50
2022-10-25T08:15:35.213Z,85.19
2022-10-25T08:16:34.199Z,85.39
2022-10-25T08:17:34.209Z,84.99
2022-10-25T08:18:34.189Z,84.99
2022-10-25T08:19:34.207Z,85.30
2022-10-25T08:20:56.768Z,84.34
2022-10-25T08:21:36.170Z,84.58
2022-10-25T08:22:34.155Z,84.58
2022-10-25T08:23:34.148Z,84.85
2022-10-25T08:24:34.154Z,84.14
2022-10-25T08:25:34.145Z,83.63
2022-10-25T08:26:36.772Z,83.73
2022-10-25T08:27:35.135Z,84.00
2022-10-25T08:28:34.109Z,83.90
2022-10-25T08:29:34.113Z,83.59
2022-10-25T08:30:34.095Z,83.69
2022-10-25T08:31:34.100Z,83.18
2022-10-25T08:32:34.078Z,82.98
2022-10-25T08:33:34.077Z,82.24
2022-10-25T08:34:34.064Z,82.14
2022-10-25T08:35:34.116Z,82.24
2022-10-25T08:36:34.074Z,81.90
2022-10-25T08:37:34.074Z,81.59
2022-10-25T08:38:34.598Z,81.18
2022-10-25T08:39:34.020Z,80.64
2022-10-25T08:40:34.038Z,80.84
2022-10-25T08:41:34.227Z,80.24
2022-10-25T08:42:33.997Z,80.44
2022-10-25T08:43:33.996Z,80.10
2022-10-25T08:44:33.985Z,79.79
2022-10-25T08:45:34.013Z,79.90
2022-10-25T08:46:33.970Z,79.79
2022-10-25T08:47:33.956Z,80.24
2022-10-25T08:48:33.956Z,80.58
2022-10-25T08:49:33.947Z,80.54
2022-10-25T08:50:33.932Z,80.54
2022-10-25T08:51:33.940Z,80.24
2022-10-25T08:52:33.916Z,80.58
2022-10-25T08:53:33.913Z,80.58
2022-10-25T08:54:33.904Z,80.47
2022-10-25T08:55:33.900Z,80.24
2022-10-25T08:56:37.187Z,80.24
2022-10-25T08:57:34.882Z,79.77
2022-10-25T08:58:33.869Z,80.07
2022-10-25T08:59:33.862Z,80.58
2022-10-25T09:00:34.609Z,80.58
2022-10-25T09:01:33.998Z,80.18
2022-10-25T09:02:34.101Z,79.93
2022-10-25T09:03:33.881Z,79.39
2022-10-25T09:04:33.837Z,78.38
2022-10-25T09:05:33.814Z,78.04
2022-10-25T09:06:34.215Z,77.97
2022-10-25T09:07:33.795Z,77.13
2022-10-25T09:08:33.788Z,77.17
2022-10-25T09:09:33.786Z,77.47
2022-10-25T09:10:33.767Z,77.77
2022-10-25T09:11:33.767Z,78.28
2022-10-25T09:12:33.751Z,78.48
2022-10-25T09:14:34.688Z,78.17
2022-10-25T09:15:35.122Z,78.48
2022-10-25T09:16:33.729Z,78.17
2022-10-25T09:17:33.711Z,78.31
2022-10-25T09:18:33.707Z,77.87
2022-10-25T09:19:33.693Z,78.17
2022-10-25T09:20:33.692Z,77.84
2022-10-25T09:21:33.690Z,77.67
2022-10-25T09:22:33.675Z,78.08
2022-10-25T09:23:33.704Z,77.67
2022-10-25T09:24:33.684Z,77.33
2022-10-25T09:25:33.649Z,77.94
2022-10-25T09:26:33.660Z,76.69
2022-10-25T09:27:33.631Z,76.55
2022-10-25T09:28:33.636Z,76.18
2022-10-25T09:29:33.628Z,76.25
2022-10-25T09:30:33.621Z,75.34
2022-10-25T09:31:33.604Z,75.74
2022-10-25T09:32:33.588Z,75.64
2022-10-25T09:33:33.591Z,75.57
2022-10-25T09:34:33.576Z,75.54
2022-10-25T09:35:33.635Z,75.84
2022-10-25T09:36:33.559Z,76.04
2022-10-25T09:37:33.570Z,75.84
2022-10-25T09:38:33.614Z,75.51
2022-10-25T09:39:33.541Z,75.31
2022-10-25T09:40:33.527Z,75.54
2022-10-25T09:41:33.558Z,75.20
2022-10-25T09:42:33.513Z,75.51
2022-10-25T09:43:33.509Z,75.31
2022-10-25T09:44:33.500Z,75.31
2022-10-25T09:45:33.539Z,74.49
2022-10-25T09:46:33.494Z,75.64
2022-10-25T09:47:33.469Z,75.95
2022-10-25T09:48:33.532Z,75.95
2022-10-25T09:49:33.489Z,75.64
2022-10-25T09:50:33.478Z,75.95
2022-10-25T09:51:33.482Z,76.25
2022-10-25T09:52:34.198Z,76.25
2022-10-25T09:53:33.418Z,76.25
2022-10-25T09:54:33.414Z,75.95
2022-10-25T09:55:33.426Z,76.04
2022-10-25T09:56:33.393Z,76.15
2022-10-25T09:57:33.440Z,76.35
2022-10-25T09:58:33.377Z,76.25
2022-10-25T09:59:33.370Z,76.75
2022-10-25T10:00:33.370Z,77.36
2022-10-25T10:01:33.451Z,76.65
2022-10-25T10:02:33.438Z,76.04
2022-10-25T10:03:34.134Z,76.01
2022-10-25T10:04:33.326Z,76.11
2022-10-25T10:05:33.338Z,75.71
2022-10-25T10:06:33.366Z,75.81
2022-10-25T10:07:33.321Z,75.47
2022-10-25T10:08:33.326Z,75.37
2022-10-25T10:09:33.287Z,75.37
2022-10-25T10:10:33.304Z,75.57
2022-10-25T10:11:33.274Z,74.36
2022-10-25T10:12:33.271Z,74.36
2022-10-25T10:13:33.683Z,74.66
2022-10-25T10:14:33.260Z,74.63
2022-10-25T10:15:33.240Z,74.56
2022-10-25T10:16:33.243Z,74.26
2022-10-25T10:17:33.225Z,74.05
2022-10-25T10:18:33.202Z,74.66
2022-10-25T10:19:34.216Z,74.56
2022-10-25T10:20:33.217Z,73.96
2022-10-25T10:21:33.190Z,74.36
2022-10-25T10:22:33.201Z,74.66
2022-10-25T10:23:33.177Z,75.00
2022-10-25T10:24:33.176Z,75.00
2022-10-25T10:25:33.156Z,75.20
2022-10-25T10:26:33.155Z,74.40
2022-10-25T10:27:33.142Z,75.31
2022-10-25T10:28:33.133Z,75.74
2022-10-25T10:29:33.187Z,74.80
2022-10-25T10:30:33.116Z,75.00
2022-10-25T10:31:33.156Z,74.84
2022-10-25T10:32:33.129Z,75.24
2022-10-25T10:33:33.110Z,75.24
2022-10-25T10:34:33.100Z,75.34
2022-10-25T10:35:33.083Z,75.74
2022-10-25T10:36:33.054Z,76.15
2022-10-25T10:37:34.060Z,75.44
2022-10-25T10:38:33.045Z,74.93
2022-10-25T10:39:33.635Z,74.69
2022-10-25T10:40:33.041Z,74.69
2022-10-25T10:41:33.976Z,73.49
2022-10-25T10:42:33.012Z,74.36
2022-10-25T10:43:33.005Z,74.26
2022-10-25T10:44:33.003Z,74.26
2022-10-25T10:45:33.001Z,73.85
2022-10-25T10:46:32.996Z,74.26
2022-10-25T10:47:32.971Z,74.16
2022-10-25T10:48:33.005Z,74.16
2022-10-25T10:49:32.968Z,74.22
2022-10-25T10:50:33.162Z,73.96
2022-10-25T10:51:43.655Z,73.85
2022-10-25T10:52:34.942Z,73.32
2022-10-25T10:53:32.930Z,73.25
2022-10-25T10:54:32.918Z,73.32
2022-10-25T10:55:32.928Z,73.72
2022-10-25T10:56:33.646Z,73.85
2022-10-25T10:57:32.907Z,74.66
2022-10-25T10:58:32.928Z,75.07
2022-10-25T10:59:32.887Z,75.67
2022-10-25T11:00:32.870Z,76.01
2022-10-25T11:01:33.034Z,77.15
2022-10-25T11:02:33.138Z,77.66
2022-10-25T11:03:32.842Z,77.60
2022-10-25T11:04:32.854Z,78.20
2022-10-25T11:05:32.830Z,77.26
2022-10-25T11:06:32.834Z,77.46
2022-10-25T11:07:32.825Z,77.42
2022-10-25T11:08:32.817Z,76.92
2022-10-25T11:09:32.810Z,76.72
2022-10-25T11:10:32.793Z,76.62
2022-10-25T11:11:32.790Z,77.42
2022-10-25T11:12:34.165Z,77.12
2022-10-25T11:13:32.775Z,77.08
2022-10-25T11:14:32.755Z,77.39
2022-10-25T11:15:32.753Z,76.48
2022-10-25T11:16:32.742Z,76.38
2022-10-25T11:17:32.856Z,77.62
2022-10-25T11:18:32.738Z,77.28
2022-10-25T11:19:32.724Z,76.68
2022-10-25T11:20:32.715Z,76.07
2022-10-25T11:21:33.320Z,75.51
2022-10-25T11:22:33.146Z,75.98
2022-10-25T11:23:32.690Z,75.98
2022-10-25T11:24:32.680Z,75.57
2022-10-25T11:25:32.686Z,75.47
2022-10-25T11:26:33.654Z,75.37
2022-10-25T11:27:34.970Z,74.32
2022-10-25T11:28:34.167Z,74.46
2022-10-25T11:29:32.665Z,74.32
2022-10-25T11:30:32.626Z,74.22
2022-10-25T11:31:32.627Z,75.23
2022-10-25T11:32:32.670Z,74.12
2022-10-25T11:33:32.704Z,74.52
2022-10-25T11:34:32.607Z,74.02
2022-10-25T11:35:32.635Z,73.72
2022-10-25T11:36:32.603Z,74.46
2022-10-25T11:37:32.610Z,74.56
2022-10-25T11:38:32.585Z,74.26
2022-10-25T11:39:32.568Z,74.46
2022-10-25T11:40:32.561Z,73.82
2022-10-25T11:41:32.559Z,73.62
2022-10-25T11:42:32.530Z,73.32
2022-10-25T11:43:32.534Z,72.61
2022-10-25T11:44:32.518Z,72.41
2022-10-25T11:45:32.513Z,72.91
2022-10-25T11:46:32.499Z,72.58
2022-10-25T11:47:32.495Z,72.38
2022-10-25T11:48:32.495Z,72.07
2022-10-25T11:49:32.580Z,71.97
2022-10-25T11:50:32.484Z,71.67
2022-10-25T11:51:32.465Z,72.07
2022-10-25T11:52:32.467Z,72.07
2022-10-25T11:53:32.458Z,72.07
2022-10-25T11:54:32.449Z,71.44
2022-10-25T11:55:32.445Z,71.57
2022-10-25T11:56:32.475Z,71.87
2022-10-25T11:57:32.429Z,71.06
2022-10-25T11:58:33.169Z,71.17
2022-10-25T11:59:32.410Z,71.26
2022-10-25T12:00:32.413Z,70.97
2022-10-25T12:01:32.454Z,71.23
2022-10-25T12:02:32.416Z,70.36
2022-10-25T12:03:32.379Z,71.33
2022-10-25T12:04:33.702Z,70.93
2022-10-25T12:05:33.468Z,70.83
2022-10-25T12:06:32.361Z,70.93
2022-10-25T12:07:32.364Z,70.53
2022-10-25T12:08:32.353Z,71.03
2022-10-25T12:10:04.723Z,70.62
2022-10-25T12:10:32.414Z,70.32
2022-10-25T12:11:32.323Z,70.73
2022-10-25T12:12:32.311Z,70.83
2022-10-25T12:13:32.315Z,70.32
2022-10-25T12:14:32.289Z,70.93
2022-10-25T12:15:32.280Z,71.23
2022-10-25T12:16:32.274Z,70.76
2022-10-25T12:17:32.270Z,70.86
2022-10-25T12:18:33.203Z,70.76
2022-10-25T12:19:32.251Z,70.42
2022-10-25T12:20:32.286Z,70.22
2022-10-25T12:21:32.334Z,70.42
2022-10-25T12:22:32.236Z,69.92
2022-10-25T12:23:32.217Z,69.62
2022-10-25T12:24:32.206Z,69.52
2022-10-25T12:25:32.212Z,69.82
2022-10-25T12:26:32.195Z,69.82
2022-10-25T12:27:32.190Z,69.82
2022-10-25T12:28:33.708Z,70.06
2022-10-25T12:29:32.169Z,70.15
2022-10-25T12:30:32.712Z,70.46
2022-10-25T12:31:32.184Z,70.56
2022-10-25T12:32:32.145Z,69.82
2022-10-25T12:33:32.132Z,70.22
2022-10-25T12:34:32.131Z,70.02
2022-10-25T12:35:32.148Z,70.12
2022-10-25T12:36:35.886Z,70.36
2022-10-25T12:37:32.107Z,70.06
2022-10-25T12:38:32.098Z,70.46
2022-10-25T12:39:32.097Z,70.76
2022-10-25T12:40:32.116Z,70.12
2022-10-25T12:41:32.241Z,69.92
2022-10-25T12:42:32.061Z,70.02
2022-10-25T12:43:32.060Z,69.79
2022-10-25T12:44:32.045Z,69.42
2022-10-25T12:45:32.058Z,69.99
2022-10-25T12:46:32.070Z,69.59
2022-10-25T12:47:32.024Z,68.88
2022-10-25T12:48:32.025Z,69.42
2022-10-25T12:49:32.007Z,69.01
2022-10-25T12:50:32.007Z,69.29
2022-10-25T12:51:32.002Z,69.18
2022-10-25T12:52:32.090Z,69.99
2022-10-25T12:53:36.715Z,69.82
2022-10-25T12:55:04.745Z,69.89
2022-10-25T12:55:32.113Z,69.92
2022-10-25T12:56:31.967Z,69.52
2022-10-25T12:57:31.940Z,69.69
2022-10-25T12:59:04.765Z,70.12